sensor_id;sensor_type;location;lat;lon;timestamp;pressure;altitude;pressure_sealevel;temperature;humidity
56668;BME280;42542;48.360;10.958;2023-07-09T00:02:56;96521.09;;;19.84;72.70
56668;BME280;42542;48.360;10.958;2023-07-09T00:06:01;96529.03;;;19.79;72.98
56668;BME280;42542;48.360;10.958;2023-07-09T00:09:04;96524.66;;;19.71;73.08
56668;BME280;42542;48.360;10.958;2023-07-09T00:12:14;96529.47;;;19.69;73.29
56668;BME280;42542;48.360;10.958;2023-07-09T00:15:16;96529.06;;;19.66;73.01
56668;BME280;42542;48.360;10.958;2023-07-09T00:18:21;96537.81;;;19.61;73.04
56668;BME280;42542;48.360;10.958;2023-07-09T00:21:24;96530.13;;;19.58;73.47
56668;BME280;42542;48.360;10.958;2023-07-09T00:24:26;96537.00;;;19.54;73.44
56668;BME280;42542;48.360;10.958;2023-07-09T00:27:30;96539.31;;;19.51;73.26
56668;BME280;42542;48.360;10.958;2023-07-09T00:30:33;96538.03;;;19.46;73.32
56668;BME280;42542;48.360;10.958;2023-07-09T00:33:35;96535.94;;;19.42;73.43
56668;BME280;42542;48.360;10.958;2023-07-09T00:36:42;96538.44;;;19.37;73.50
56668;BME280;42542;48.360;10.958;2023-07-09T00:39:47;96543.44;;;19.33;73.70
56668;BME280;42542;48.360;10.958;2023-07-09T00:42:53;96543.22;;;19.28;73.68
56668;BME280;42542;48.360;10.958;2023-07-09T00:49:37;96549.91;;;19.19;73.92
56668;BME280;42542;48.360;10.958;2023-07-09T00:52:52;96561.97;;;19.17;73.74
56668;BME280;42542;48.360;10.958;2023-07-09T00:56:01;96561.56;;;19.13;73.73
56668;BME280;42542;48.360;10.958;2023-07-09T00:59:12;96569.50;;;19.08;73.95
56668;BME280;42542;48.360;10.958;2023-07-09T01:02:16;96573.25;;;19.07;74.05
56668;BME280;42542;48.360;10.958;2023-07-09T01:05:26;96579.69;;;19.06;74.23
56668;BME280;42542;48.360;10.958;2023-07-09T01:08:33;96574.66;;;19.03;74.30
56668;BME280;42542;48.360;10.958;2023-07-09T01:11:37;96575.94;;;19.00;74.44
56668;BME280;42542;48.360;10.958;2023-07-09T01:14:41;96580.06;;;18.96;74.51
56668;BME280;42542;48.360;10.958;2023-07-09T01:17:50;96574.25;;;18.93;74.67
56668;BME280;42542;48.360;10.958;2023-07-09T01:21:06;96564.00;;;18.88;75.08
56668;BME280;42542;48.360;10.958;2023-07-09T01:24:51;96575.47;;;18.84;75.70
56668;BME280;42542;48.360;10.958;2023-07-09T01:27:55;96564.44;;;18.79;75.31
56668;BME280;42542;48.360;10.958;2023-07-09T01:31:00;96572.13;;;18.75;75.48
56668;BME280;42542;48.360;10.958;2023-07-09T01:34:08;96573.38;;;18.73;75.52
56668;BME280;42542;48.360;10.958;2023-07-09T01:37:09;96581.06;;;18.69;75.65
56668;BME280;42542;48.360;10.958;2023-07-09T01:40:18;96575.44;;;18.64;75.75
56668;BME280;42542;48.360;10.958;2023-07-09T01:43:34;96568.13;;;18.58;75.71
56668;BME280;42542;48.360;10.958;2023-07-09T01:46:39;96577.44;;;18.55;75.92
56668;BME280;42542;48.360;10.958;2023-07-09T01:49:43;96567.22;;;18.51;76.05
56668;BME280;42542;48.360;10.958;2023-07-09T01:52:48;96566.16;;;18.45;76.20
56668;BME280;42542;48.360;10.958;2023-07-09T01:55:52;96576.38;;;18.43;76.38
56668;BME280;42542;48.360;10.958;2023-07-09T01:58:58;96577.78;;;18.39;76.67
56668;BME280;42542;48.360;10.958;2023-07-09T02:02:04;96569.25;;;18.36;76.72
56668;BME280;42542;48.360;10.958;2023-07-09T02:05:07;96565.44;;;18.30;76.82
56668;BME280;42542;48.360;10.958;2023-07-09T02:08:10;96579.59;;;18.25;76.46
56668;BME280;42542;48.360;10.958;2023-07-09T02:11:15;96575.22;;;18.24;76.87
56668;BME280;42542;48.360;10.958;2023-07-09T02:14:20;96583.75;;;18.21;77.24
56668;BME280;42542;48.360;10.958;2023-07-09T02:17:23;96567.69;;;18.13;77.19
56668;BME280;42542;48.360;10.958;2023-07-09T02:20:25;96573.09;;;18.13;77.22
56668;BME280;42542;48.360;10.958;2023-07-09T02:23:30;96576.38;;;18.09;77.41
56668;BME280;42542;48.360;10.958;2023-07-09T02:26:32;96581.78;;;18.09;77.40
56668;BME280;42542;48.360;10.958;2023-07-09T02:29:37;96584.06;;;18.05;77.60
56668;BME280;42542;48.360;10.958;2023-07-09T02:32:43;96583.63;;;18.02;77.86
56668;BME280;42542;48.360;10.958;2023-07-09T02:35:45;96587.41;;;18.01;77.95
56668;BME280;42542;48.360;10.958;2023-07-09T02:38:48;96580.88;;;17.95;78.19
56668;BME280;42542;48.360;10.958;2023-07-09T02:41:51;96579.22;;;17.94;78.33
56668;BME280;42542;48.360;10.958;2023-07-09T02:44:54;96582.53;;;17.89;78.43
56668;BME280;42542;48.360;10.958;2023-07-09T02:48:00;96591.84;;;17.87;78.48
56668;BME280;42542;48.360;10.958;2023-07-09T02:51:08;96592.28;;;17.84;78.56
56668;BME280;42542;48.360;10.958;2023-07-09T02:54:10;96596.38;;;17.80;78.68
56668;BME280;42542;48.360;10.958;2023-07-09T02:57:16;96595.78;;;17.78;78.86
56668;BME280;42542;48.360;10.958;2023-07-09T03:00:21;96598.00;;;17.74;79.08
56668;BME280;42542;48.360;10.958;2023-07-09T03:03:24;96592.19;;;17.71;79.39
56668;BME280;42542;48.360;10.958;2023-07-09T03:06:27;96592.75;;;17.66;79.37
56668;BME280;42542;48.360;10.958;2023-07-09T03:09:30;96602.13;;;17.64;79.71
56668;BME280;42542;48.360;10.958;2023-07-09T03:12:31;96607.88;;;17.61;79.62
56668;BME280;42542;48.360;10.958;2023-07-09T03:15:34;96596.41;;;17.58;79.82
56668;BME280;42542;48.360;10.958;2023-07-09T03:18:36;96592.44;;;17.54;79.92
56668;BME280;42542;48.360;10.958;2023-07-09T03:21:40;96591.16;;;17.50;80.25
56668;BME280;42542;48.360;10.958;2023-07-09T03:24:43;96600.31;;;17.49;80.34
56668;BME280;42542;48.360;10.958;2023-07-09T03:27:48;96598.63;;;17.48;80.56
56668;BME280;42542;48.360;10.958;2023-07-09T03:30:53;96605.25;;;17.46;80.58
56668;BME280;42542;48.360;10.958;2023-07-09T03:33:56;96608.97;;;17.45;80.73
56668;BME280;42542;48.360;10.958;2023-07-09T03:36:58;96613.78;;;17.43;80.62
56668;BME280;42542;48.360;10.958;2023-07-09T03:40:00;96611.25;;;17.41;80.55
56668;BME280;42542;48.360;10.958;2023-07-09T03:43:05;96612.03;;;17.35;80.78
56668;BME280;42542;48.360;10.958;2023-07-09T03:46:07;96616.38;;;17.36;80.70
56668;BME280;42542;48.360;10.958;2023-07-09T03:49:11;96611.38;;;17.33;81.14
56668;BME280;42542;48.360;10.958;2023-07-09T03:52:16;96623.03;;;17.34;80.87
56668;BME280;42542;48.360;10.958;2023-07-09T03:55:22;96618.84;;;17.31;81.32
56668;BME280;42542;48.360;10.958;2023-07-09T03:58:31;96620.72;;;17.31;81.40
56668;BME280;42542;48.360;10.958;2023-07-09T04:01:34;96626.28;;;17.29;81.75
56668;BME280;42542;48.360;10.958;2023-07-09T04:04:36;96636.28;;;17.29;81.88
56668;BME280;42542;48.360;10.958;2023-07-09T04:07:39;96633.78;;;17.27;81.91
56668;BME280;42542;48.360;10.958;2023-07-09T04:10:42;96633.78;;;17.27;82.15
56668;BME280;42542;48.360;10.958;2023-07-09T04:13:45;96636.50;;;17.27;82.27
56668;BME280;42542;48.360;10.958;2023-07-09T04:16:49;96640.03;;;17.28;82.21
56668;BME280;42542;48.360;10.958;2023-07-09T04:19:52;96637.09;;;17.29;82.82
56668;BME280;42542;48.360;10.958;2023-07-09T04:22:55;96642.31;;;17.31;82.80
56668;BME280;42542;48.360;10.958;2023-07-09T04:26:00;96638.59;;;17.32;82.41
56668;BME280;42542;48.360;10.958;2023-07-09T04:29:06;96649.88;;;17.35;82.47
56668;BME280;42542;48.360;10.958;2023-07-09T04:32:14;96650.13;;;17.40;82.70
56668;BME280;42542;48.360;10.958;2023-07-09T04:35:17;96641.81;;;17.42;82.62
56668;BME280;42542;48.360;10.958;2023-07-09T04:38:22;96643.94;;;17.46;82.54
56668;BME280;42542;48.360;10.958;2023-07-09T04:41:25;96648.97;;;17.49;82.66
56668;BME280;42542;48.360;10.958;2023-07-09T04:44:30;96643.97;;;17.53;82.59
56668;BME280;42542;48.360;10.958;2023-07-09T04:47:33;96642.78;;;17.55;82.55
56668;BME280;42542;48.360;10.958;2023-07-09T04:50:37;96644.72;;;17.62;82.45
56668;BME280;42542;48.360;10.958;2023-07-09T04:53:40;96644.97;;;17.67;82.54
56668;BME280;42542;48.360;10.958;2023-07-09T04:56:44;96641.69;;;17.71;82.35
56668;BME280;42542;48.360;10.958;2023-07-09T04:59:47;96639.22;;;17.76;81.72
56668;BME280;42542;48.360;10.958;2023-07-09T05:02:50;96644.69;;;17.83;81.56
56668;BME280;42542;48.360;10.958;2023-07-09T05:05:53;96644.91;;;17.88;81.15
56668;BME280;42542;48.360;10.958;2023-07-09T05:08:54;96651.44;;;17.93;80.90
56668;BME280;42542;48.360;10.958;2023-07-09T05:11:56;96656.47;;;18.03;80.53
56668;BME280;42542;48.360;10.958;2023-07-09T05:14:59;96657.16;;;18.12;80.63
56668;BME280;42542;48.360;10.958;2023-07-09T05:18:02;96654.31;;;18.20;80.58
56668;BME280;42542;48.360;10.958;2023-07-09T05:21:04;96659.38;;;18.29;80.98
56668;BME280;42542;48.360;10.958;2023-07-09T05:24:07;96652.72;;;18.39;81.05
56668;BME280;42542;48.360;10.958;2023-07-09T05:27:13;96655.94;;;18.49;81.00
56668;BME280;42542;48.360;10.958;2023-07-09T05:30:17;96650.19;;;18.58;80.86
56668;BME280;42542;48.360;10.958;2023-07-09T05:33:22;96663.97;;;18.70;81.06
56668;BME280;42542;48.360;10.958;2023-07-09T05:36:26;96661.50;;;18.82;81.12
56668;BME280;42542;48.360;10.958;2023-07-09T05:39:29;96659.28;;;18.92;80.95
56668;BME280;42542;48.360;10.958;2023-07-09T05:42:31;96660.53;;;19.02;80.86
56668;BME280;42542;48.360;10.958;2023-07-09T05:45:33;96659.97;;;19.14;80.14
56668;BME280;42542;48.360;10.958;2023-07-09T05:48:35;96661.44;;;19.23;80.33
56668;BME280;42542;48.360;10.958;2023-07-09T05:51:37;96672.31;;;19.36;79.68
56668;BME280;42542;48.360;10.958;2023-07-09T05:54:39;96670.88;;;19.46;79.42
56668;BME280;42542;48.360;10.958;2023-07-09T05:57:52;96663.59;;;19.60;79.13
56668;BME280;42542;48.360;10.958;2023-07-09T06:00:55;96671.78;;;19.73;78.69
56668;BME280;42542;48.360;10.958;2023-07-09T06:04:00;96668.84;;;19.88;78.09
56668;BME280;42542;48.360;10.958;2023-07-09T06:07:03;96666.13;;;20.01;77.77
56668;BME280;42542;48.360;10.958;2023-07-09T06:10:08;96663.19;;;20.16;77.81
56668;BME280;42542;48.360;10.958;2023-07-09T06:13:14;96660.03;;;20.25;76.68
56668;BME280;42542;48.360;10.958;2023-07-09T06:16:19;96660.66;;;20.41;76.11
56668;BME280;42542;48.360;10.958;2023-07-09T06:19:22;96664.41;;;20.53;75.64
56668;BME280;42542;48.360;10.958;2023-07-09T06:22:26;96667.91;;;20.67;75.27
56668;BME280;42542;48.360;10.958;2023-07-09T06:25:29;96658.66;;;20.81;74.93
56668;BME280;42542;48.360;10.958;2023-07-09T06:28:33;96663.41;;;20.92;74.66
56668;BME280;42542;48.360;10.958;2023-07-09T06:31:35;96662.31;;;21.06;73.97
56668;BME280;42542;48.360;10.958;2023-07-09T06:34:38;96657.06;;;21.18;73.60
56668;BME280;42542;48.360;10.958;2023-07-09T06:37:41;96660.75;;;21.30;73.38
56668;BME280;42542;48.360;10.958;2023-07-09T06:40:43;96665.94;;;21.38;72.60
56668;BME280;42542;48.360;10.958;2023-07-09T06:43:47;96660.00;;;21.48;71.86
56668;BME280;42542;48.360;10.958;2023-07-09T06:46:49;96658.06;;;21.55;71.08
56668;BME280;42542;48.360;10.958;2023-07-09T06:49:52;96653.59;;;21.67;70.80
56668;BME280;42542;48.360;10.958;2023-07-09T06:52:54;96663.13;;;21.83;70.74
56668;BME280;42542;48.360;10.958;2023-07-09T06:55:58;96665.72;;;21.96;71.06
56668;BME280;42542;48.360;10.958;2023-07-09T06:59:07;96670.69;;;22.05;70.99
56668;BME280;42542;48.360;10.958;2023-07-09T07:02:08;96663.91;;;22.14;70.01
56668;BME280;42542;48.360;10.958;2023-07-09T07:05:11;96658.94;;;22.30;69.91
56668;BME280;42542;48.360;10.958;2023-07-09T07:08:15;96651.94;;;22.40;69.18
56668;BME280;42542;48.360;10.958;2023-07-09T07:11:22;96660.19;;;22.52;68.38
56668;BME280;42542;48.360;10.958;2023-07-09T07:14:26;96655.84;;;22.63;67.22
56668;BME280;42542;48.360;10.958;2023-07-09T07:17:31;96650.31;;;22.76;66.14
56668;BME280;42542;48.360;10.958;2023-07-09T07:20:37;96652.88;;;22.89;65.84
56668;BME280;42542;48.360;10.958;2023-07-09T07:23:39;96651.88;;;23.02;65.13
56668;BME280;42542;48.360;10.958;2023-07-09T07:26:43;96647.28;;;23.14;64.66
56668;BME280;42542;48.360;10.958;2023-07-09T07:29:48;96647.94;;;23.27;63.92
56668;BME280;42542;48.360;10.958;2023-07-09T07:32:51;96645.28;;;23.39;63.79
56668;BME280;42542;48.360;10.958;2023-07-09T07:35:57;96649.50;;;23.53;63.11
56668;BME280;42542;48.360;10.958;2023-07-09T07:39:02;96651.41;;;23.64;62.62
56668;BME280;42542;48.360;10.958;2023-07-09T07:42:06;96655.03;;;23.77;61.82
56668;BME280;42542;48.360;10.958;2023-07-09T07:45:09;96654.59;;;23.91;61.66
56668;BME280;42542;48.360;10.958;2023-07-09T07:48:14;96648.91;;;24.04;61.08
56668;BME280;42542;48.360;10.958;2023-07-09T07:51:18;96649.72;;;24.17;60.08
56668;BME280;42542;48.360;10.958;2023-07-09T07:54:24;96653.09;;;24.30;59.84
56668;BME280;42542;48.360;10.958;2023-07-09T07:57:27;96649.06;;;24.44;59.26
56668;BME280;42542;48.360;10.958;2023-07-09T08:00:30;96649.28;;;24.55;57.94
56668;BME280;42542;48.360;10.958;2023-07-09T08:03:36;96640.47;;;24.64;57.65
56668;BME280;42542;48.360;10.958;2023-07-09T08:06:40;96638.09;;;24.68;56.85
56668;BME280;42542;48.360;10.958;2023-07-09T08:09:46;96639.25;;;24.83;56.97
56668;BME280;42542;48.360;10.958;2023-07-09T08:12:53;96631.88;;;24.96;56.34
56668;BME280;42542;48.360;10.958;2023-07-09T08:15:59;96637.97;;;25.14;54.39
56668;BME280;42542;48.360;10.958;2023-07-09T08:19:01;96639.41;;;25.28;53.65
56668;BME280;42542;48.360;10.958;2023-07-09T08:22:03;96631.44;;;25.44;52.79
56668;BME280;42542;48.360;10.958;2023-07-09T08:25:06;96632.72;;;25.53;51.38
56668;BME280;42542;48.360;10.958;2023-07-09T08:28:09;96631.50;;;25.60;51.87
56668;BME280;42542;48.360;10.958;2023-07-09T08:31:14;96627.63;;;25.73;51.32
56668;BME280;42542;48.360;10.958;2023-07-09T08:34:17;96625.38;;;25.87;50.98
56668;BME280;42542;48.360;10.958;2023-07-09T08:37:23;96617.69;;;26.00;50.26
56668;BME280;42542;48.360;10.958;2023-07-09T08:40:27;96620.09;;;26.14;49.04
56668;BME280;42542;48.360;10.958;2023-07-09T08:50:49;96623.72;;;26.53;45.47
56668;BME280;42542;48.360;10.958;2023-07-09T08:53:57;96622.78;;;26.64;45.23
56668;BME280;42542;48.360;10.958;2023-07-09T08:57:25;96631.72;;;26.76;43.73
56668;BME280;42542;48.360;10.958;2023-07-09T09:00:57;96625.84;;;26.89;43.63
56668;BME280;42542;48.360;10.958;2023-07-09T09:04:15;96630.69;;;26.99;43.48
56668;BME280;42542;48.360;10.958;2023-07-09T09:07:40;96631.91;;;27.08;43.02
56668;BME280;42542;48.360;10.958;2023-07-09T09:10:53;96631.63;;;27.09;42.73
56668;BME280;42542;48.360;10.958;2023-07-09T09:14:13;96632.25;;;27.16;42.88
56668;BME280;42542;48.360;10.958;2023-07-09T09:17:20;96627.97;;;27.26;42.78
56668;BME280;42542;48.360;10.958;2023-07-09T09:20:27;96626.19;;;27.36;42.71
56668;BME280;42542;48.360;10.958;2023-07-09T09:23:40;96636.19;;;27.47;43.29
56668;BME280;42542;48.360;10.958;2023-07-09T09:26:44;96631.59;;;27.53;42.38
56668;BME280;42542;48.360;10.958;2023-07-09T09:29:48;96630.59;;;27.59;41.97
56668;BME280;42542;48.360;10.958;2023-07-09T09:32:58;96633.75;;;27.73;41.05
56668;BME280;42542;48.360;10.958;2023-07-09T09:36:26;96634.06;;;27.81;40.24
56668;BME280;42542;48.360;10.958;2023-07-09T09:39:37;96631.63;;;27.85;40.72
56668;BME280;42542;48.360;10.958;2023-07-09T09:42:50;96629.50;;;27.92;40.76
56668;BME280;42542;48.360;10.958;2023-07-09T09:45:53;96634.22;;;27.96;41.04
56668;BME280;42542;48.360;10.958;2023-07-09T09:49:00;96627.38;;;27.99;39.89
56668;BME280;42542;48.360;10.958;2023-07-09T09:52:10;96631.78;;;28.00;39.23
56668;BME280;42542;48.360;10.958;2023-07-09T09:58:28;96629.19;;;28.15;39.30
56668;BME280;42542;48.360;10.958;2023-07-09T10:01:33;96631.75;;;28.27;38.26
56668;BME280;42542;48.360;10.958;2023-07-09T10:04:37;96625.44;;;28.31;38.09
56668;BME280;42542;48.360;10.958;2023-07-09T10:08:13;96637.31;;;28.37;37.79
56668;BME280;42542;48.360;10.958;2023-07-09T10:14:43;96632.94;;;28.41;38.00
56668;BME280;42542;48.360;10.958;2023-07-09T10:17:56;96630.53;;;28.50;36.43
56668;BME280;42542;48.360;10.958;2023-07-09T10:24:37;96632.22;;;28.56;36.66
56668;BME280;42542;48.360;10.958;2023-07-09T10:28:15;96620.72;;;28.64;34.79
56668;BME280;42542;48.360;10.958;2023-07-09T10:35:38;96615.31;;;28.79;35.94
56668;BME280;42542;48.360;10.958;2023-07-09T10:39:07;96623.84;;;28.83;35.72
56668;BME280;42542;48.360;10.958;2023-07-09T10:42:30;96618.94;;;28.90;36.16
56668;BME280;42542;48.360;10.958;2023-07-09T10:45:40;96617.06;;;28.95;35.48
56668;BME280;42542;48.360;10.958;2023-07-09T10:48:50;96617.66;;;29.02;34.12
56668;BME280;42542;48.360;10.958;2023-07-09T10:58:37;96607.75;;;29.11;33.48
56668;BME280;42542;48.360;10.958;2023-07-09T11:01:47;96605.28;;;29.15;32.76
56668;BME280;42542;48.360;10.958;2023-07-09T11:05:02;96599.22;;;29.18;32.69
56668;BME280;42542;48.360;10.958;2023-07-09T11:08:13;96610.03;;;29.30;33.38
56668;BME280;42542;48.360;10.958;2023-07-09T11:11:40;96602.09;;;29.38;33.08
56668;BME280;42542;48.360;10.958;2023-07-09T11:14:51;96597.69;;;29.42;33.24
56668;BME280;42542;48.360;10.958;2023-07-09T11:17:59;96583.66;;;29.49;33.20
56668;BME280;42542;48.360;10.958;2023-07-09T11:21:07;96588.91;;;29.50;31.99
56668;BME280;42542;48.360;10.958;2023-07-09T11:24:49;96584.47;;;29.55;32.23
56668;BME280;42542;48.360;10.958;2023-07-09T11:28:01;96585.06;;;29.67;32.97
56668;BME280;42542;48.360;10.958;2023-07-09T11:31:25;96583.69;;;29.74;32.25
56668;BME280;42542;48.360;10.958;2023-07-09T11:34:33;96586.72;;;29.83;33.09
56668;BME280;42542;48.360;10.958;2023-07-09T11:37:45;96581.75;;;29.85;31.46
56668;BME280;42542;48.360;10.958;2023-07-09T11:40:55;96574.31;;;29.85;29.56
56668;BME280;42542;48.360;10.958;2023-07-09T11:44:18;96575.44;;;29.89;31.01
56668;BME280;42542;48.360;10.958;2023-07-09T11:47:28;96561.66;;;30.00;31.92
56668;BME280;42542;48.360;10.958;2023-07-09T11:50:36;96568.53;;;30.12;32.13
56668;BME280;42542;48.360;10.958;2023-07-09T11:53:53;96564.41;;;30.20;31.40
56668;BME280;42542;48.360;10.958;2023-07-09T11:56:58;96563.28;;;30.36;30.94
56668;BME280;42542;48.360;10.958;2023-07-09T12:00:03;96543.38;;;30.49;30.78
56668;BME280;42542;48.360;10.958;2023-07-09T12:03:39;96544.53;;;30.53;30.62
56668;BME280;42542;48.360;10.958;2023-07-09T12:06:46;96543.09;;;30.66;30.97
56668;BME280;42542;48.360;10.958;2023-07-09T12:09:50;96541.41;;;30.75;30.21
56668;BME280;42542;48.360;10.958;2023-07-09T12:12:57;96543.31;;;30.80;29.87
56668;BME280;42542;48.360;10.958;2023-07-09T12:16:17;96553.78;;;30.88;29.79
56668;BME280;42542;48.360;10.958;2023-07-09T12:19:24;96552.59;;;31.09;28.13
56668;BME280;42542;48.360;10.958;2023-07-09T12:22:32;96546.41;;;31.32;28.71
56668;BME280;42542;48.360;10.958;2023-07-09T12:25:35;96534.41;;;31.47;28.20
56668;BME280;42542;48.360;10.958;2023-07-09T12:28:41;96535.47;;;31.51;26.09
56668;BME280;42542;48.360;10.958;2023-07-09T12:31:48;96532.44;;;31.53;27.36
56668;BME280;42542;48.360;10.958;2023-07-09T12:34:53;96526.53;;;31.69;27.87
56668;BME280;42542;48.360;10.958;2023-07-09T12:37:56;96519.47;;;31.87;27.60
56668;BME280;42542;48.360;10.958;2023-07-09T12:41:00;96515.47;;;32.03;28.17
56668;BME280;42542;48.360;10.958;2023-07-09T12:44:05;96507.88;;;32.14;28.39
56668;BME280;42542;48.360;10.958;2023-07-09T12:47:17;96512.22;;;32.25;28.05
56668;BME280;42542;48.360;10.958;2023-07-09T12:50:35;96506.00;;;32.38;27.13
56668;BME280;42542;48.360;10.958;2023-07-09T12:53:39;96498.56;;;32.57;27.87
56668;BME280;42542;48.360;10.958;2023-07-09T12:56:43;96503.22;;;32.86;27.41
56668;BME280;42542;48.360;10.958;2023-07-09T12:59:47;96490.38;;;32.95;27.30
56668;BME280;42542;48.360;10.958;2023-07-09T13:02:55;96495.25;;;33.03;27.57
56668;BME280;42542;48.360;10.958;2023-07-09T13:06:05;96497.00;;;33.37;27.62
56668;BME280;42542;48.360;10.958;2023-07-09T13:09:20;96494.59;;;33.67;27.43
56668;BME280;42542;48.360;10.958;2023-07-09T13:12:29;96493.56;;;33.96;27.50
56668;BME280;42542;48.360;10.958;2023-07-09T13:15:44;96493.13;;;34.21;27.13
56668;BME280;42542;48.360;10.958;2023-07-09T13:18:55;96482.78;;;34.40;26.47
56668;BME280;42542;48.360;10.958;2023-07-09T13:21:59;96481.38;;;34.57;26.10
56668;BME280;42542;48.360;10.958;2023-07-09T13:25:01;96481.28;;;34.75;26.30
56668;BME280;42542;48.360;10.958;2023-07-09T13:28:15;96480.34;;;34.94;24.06
56668;BME280;42542;48.360;10.958;2023-07-09T13:31:21;96478.78;;;34.88;24.97
56668;BME280;42542;48.360;10.958;2023-07-09T13:34:30;96473.38;;;35.18;25.40
56668;BME280;42542;48.360;10.958;2023-07-09T13:37:39;96484.06;;;35.39;24.67
56668;BME280;42542;48.360;10.958;2023-07-09T13:40:48;96483.16;;;35.66;24.89
56668;BME280;42542;48.360;10.958;2023-07-09T13:43:51;96480.56;;;35.91;24.62
56668;BME280;42542;48.360;10.958;2023-07-09T13:46:56;96482.66;;;36.17;24.59
56668;BME280;42542;48.360;10.958;2023-07-09T13:49:59;96482.28;;;36.32;24.27
56668;BME280;42542;48.360;10.958;2023-07-09T13:53:02;96474.19;;;36.53;24.57
56668;BME280;42542;48.360;10.958;2023-07-09T13:56:05;96480.19;;;36.68;24.09
56668;BME280;42542;48.360;10.958;2023-07-09T13:59:20;96471.69;;;36.82;23.07
56668;BME280;42542;48.360;10.958;2023-07-09T14:02:28;96470.41;;;36.88;23.31
56668;BME280;42542;48.360;10.958;2023-07-09T14:05:35;96467.50;;;37.02;22.57
56668;BME280;42542;48.360;10.958;2023-07-09T14:08:38;96464.09;;;37.22;22.58
56668;BME280;42542;48.360;10.958;2023-07-09T14:11:49;96461.81;;;37.33;22.14
56668;BME280;42542;48.360;10.958;2023-07-09T14:14:53;96462.97;;;37.40;21.52
56668;BME280;42542;48.360;10.958;2023-07-09T14:18:00;96468.72;;;37.52;21.91
56668;BME280;42542;48.360;10.958;2023-07-09T14:21:25;96446.56;;;37.73;21.90
56668;BME280;42542;48.360;10.958;2023-07-09T14:24:29;96456.88;;;37.90;22.25
56668;BME280;42542;48.360;10.958;2023-07-09T14:27:32;96457.03;;;38.02;21.70
56668;BME280;42542;48.360;10.958;2023-07-09T14:30:35;96456.06;;;38.07;21.29
56668;BME280;42542;48.360;10.958;2023-07-09T14:33:37;96449.00;;;38.09;21.62
56668;BME280;42542;48.360;10.958;2023-07-09T14:36:56;96444.56;;;38.08;21.40
56668;BME280;42542;48.360;10.958;2023-07-09T14:39:58;96449.47;;;38.11;21.05
56668;BME280;42542;48.360;10.958;2023-07-09T14:43:05;96443.88;;;38.11;20.99
56668;BME280;42542;48.360;10.958;2023-07-09T14:46:13;96446.50;;;38.16;21.08
56668;BME280;42542;48.360;10.958;2023-07-09T14:49:17;96442.72;;;38.12;20.91
56668;BME280;42542;48.360;10.958;2023-07-09T14:52:21;96440.41;;;38.23;21.10
56668;BME280;42542;48.360;10.958;2023-07-09T14:55:24;96437.81;;;38.18;20.54
56668;BME280;42542;48.360;10.958;2023-07-09T14:58:26;96442.06;;;38.15;20.41
56668;BME280;42542;48.360;10.958;2023-07-09T15:01:29;96430.91;;;38.15;20.34
56668;BME280;42542;48.360;10.958;2023-07-09T15:04:33;96443.00;;;38.28;20.97
56668;BME280;42542;48.360;10.958;2023-07-09T15:07:38;96430.56;;;38.17;19.37
56668;BME280;42542;48.360;10.958;2023-07-09T15:10:44;96436.00;;;38.05;18.93
56668;BME280;42542;48.360;10.958;2023-07-09T15:13:48;96427.47;;;37.92;19.79
56668;BME280;42542;48.360;10.958;2023-07-09T15:16:52;96428.28;;;38.02;20.44
56668;BME280;42542;48.360;10.958;2023-07-09T15:20:01;96427.28;;;38.15;20.68
56668;BME280;42542;48.360;10.958;2023-07-09T15:23:15;96417.38;;;38.26;20.24
56668;BME280;42542;48.360;10.958;2023-07-09T15:26:26;96420.97;;;38.35;19.73
56668;BME280;42542;48.360;10.958;2023-07-09T15:29:36;96420.09;;;38.43;19.30
56668;BME280;42542;48.360;10.958;2023-07-09T15:32:39;96412.06;;;38.50;20.25
56668;BME280;42542;48.360;10.958;2023-07-09T15:35:46;96417.94;;;38.57;19.51
56668;BME280;42542;48.360;10.958;2023-07-09T15:38:54;96408.75;;;38.48;19.18
56668;BME280;42542;48.360;10.958;2023-07-09T15:42:00;96406.13;;;38.52;19.42
56668;BME280;42542;48.360;10.958;2023-07-09T15:45:06;96403.91;;;38.66;19.49
56668;BME280;42542;48.360;10.958;2023-07-09T15:48:36;96406.50;;;38.71;18.90
56668;BME280;42542;48.360;10.958;2023-07-09T15:51:57;96405.22;;;38.69;18.93
56668;BME280;42542;48.360;10.958;2023-07-09T15:55:03;96396.25;;;38.54;18.90
56668;BME280;42542;48.360;10.958;2023-07-09T15:58:18;96398.19;;;38.24;18.31
56668;BME280;42542;48.360;10.958;2023-07-09T16:01:24;96402.69;;;37.91;18.37
56668;BME280;42542;48.360;10.958;2023-07-09T16:04:29;96392.75;;;37.73;19.58
56668;BME280;42542;48.360;10.958;2023-07-09T16:07:34;96387.00;;;37.52;19.20
56668;BME280;42542;48.360;10.958;2023-07-09T16:10:39;96390.63;;;37.27;20.52
56668;BME280;42542;48.360;10.958;2023-07-09T16:13:47;96392.06;;;37.07;22.51
56668;BME280;42542;48.360;10.958;2023-07-09T16:16:51;96388.94;;;36.83;22.33
56668;BME280;42542;48.360;10.958;2023-07-09T16:19:57;96373.78;;;36.58;21.56
56668;BME280;42542;48.360;10.958;2023-07-09T16:23:00;96383.53;;;36.29;21.34
56668;BME280;42542;48.360;10.958;2023-07-09T16:26:05;96383.06;;;36.05;22.06
56668;BME280;42542;48.360;10.958;2023-07-09T16:29:19;96384.47;;;35.85;21.54
56668;BME280;42542;48.360;10.958;2023-07-09T16:32:26;96384.56;;;35.72;22.31
56668;BME280;42542;48.360;10.958;2023-07-09T16:35:30;96385.84;;;35.52;21.73
56668;BME280;42542;48.360;10.958;2023-07-09T16:38:36;96381.31;;;35.34;21.83
56668;BME280;42542;48.360;10.958;2023-07-09T16:41:40;96383.31;;;35.19;22.09
56668;BME280;42542;48.360;10.958;2023-07-09T16:44:44;96386.44;;;35.04;23.71
56668;BME280;42542;48.360;10.958;2023-07-09T16:47:49;96386.28;;;34.87;25.04
56668;BME280;42542;48.360;10.958;2023-07-09T16:50:55;96386.22;;;34.65;25.58